createdAt,value
2023-04-13T00:04:22.447Z,23.07
2023-04-13T00:09:24.574Z,22.23
2023-04-13T00:14:26.497Z,21.13
2023-04-13T00:19:28.386Z,23.67
2023-04-13T00:24:30.237Z,23.13
2023-04-13T00:29:32.153Z,20.20
2023-04-13T00:34:34.036Z,25.50
2023-04-13T00:39:35.901Z,21.17
2023-04-13T00:44:37.851Z,26.00
2023-04-13T00:49:39.672Z,24.10
2023-04-13T00:54:41.507Z,20.43
2023-04-13T00:59:43.471Z,24.07
2023-04-13T01:04:45.409Z,22.37
2023-04-13T01:10:34.212Z,22.43
2023-04-13T01:15:37.594Z,18.73
2023-04-13T01:20:41.300Z,21.40
2023-04-13T01:25:56.198Z,20.10
2023-04-13T01:30:58.099Z,19.13
2023-04-13T01:36:00.145Z,19.30
2023-04-13T01:41:02.099Z,19.60
2023-04-13T01:46:13.500Z,21.73
2023-04-13T01:51:27.838Z,22.23
2023-04-13T01:56:29.841Z,25.02
2023-04-13T02:01:31.693Z,22.43
2023-04-13T02:06:33.790Z,21.37
2023-04-13T02:11:35.883Z,24.23
2023-04-13T02:16:37.785Z,21.85
2023-04-13T02:21:39.765Z,25.67
2023-04-13T02:26:41.601Z,19.97
2023-04-13T02:31:43.580Z,21.07
2023-04-13T02:36:45.476Z,17.90
2023-04-13T02:41:47.332Z,18.93
2023-04-13T02:46:49.222Z,28.17
2023-04-13T02:51:51.038Z,22.63
2023-04-13T02:56:53.034Z,20.93
2023-04-13T03:01:55.083Z,21.87
2023-04-13T03:06:56.998Z,18.67
2023-04-13T03:11:58.891Z,23.80
2023-04-13T03:17:00.840Z,21.67
2023-04-13T03:22:02.693Z,22.07
2023-04-13T03:27:04.709Z,22.10
2023-04-13T03:32:06.850Z,22.67
2023-04-13T03:37:08.719Z,20.25
2023-04-13T03:42:10.620Z,23.73
2023-04-13T03:47:12.418Z,18.63
2023-04-13T03:52:14.299Z,21.43
2023-04-13T03:57:16.158Z,20.27
2023-04-13T04:02:18.130Z,21.47
2023-04-13T04:07:20.089Z,23.77
2023-04-13T04:12:21.888Z,22.07
2023-04-13T04:17:23.751Z,21.57
2023-04-13T04:22:25.614Z,21.70
2023-04-13T04:27:27.468Z,22.17
2023-04-13T04:32:29.478Z,23.60
2023-04-13T04:37:31.389Z,20.25
2023-04-13T04:42:33.333Z,22.57
2023-04-13T04:47:35.373Z,21.55
2023-04-13T04:52:37.698Z,20.70
2023-04-13T04:57:39.547Z,23.88
2023-04-13T05:02:41.997Z,26.00
2023-04-13T05:07:43.925Z,32.22
2023-04-13T05:12:45.938Z,22.53
2023-04-13T05:17:47.894Z,24.50
2023-04-13T05:22:49.843Z,27.23
2023-04-13T05:27:51.687Z,21.30
2023-04-13T05:32:53.599Z,28.13
2023-04-13T05:37:57.065Z,27.80
2023-04-13T05:42:59.113Z,20.10
2023-04-13T05:48:01.163Z,24.30
2023-04-13T05:53:03.232Z,21.13
2023-04-13T05:58:05.040Z,21.58
2023-04-13T06:03:07.463Z,22.90
2023-04-13T06:08:09.530Z,14.20
2023-04-13T06:13:11.555Z,19.95
2023-04-13T06:18:15.361Z,18.65
2023-04-13T06:23:17.312Z,19.27
2023-04-13T06:28:19.773Z,20.65
2023-04-13T06:33:21.681Z,21.02
2023-04-13T06:38:23.529Z,18.77
2023-04-13T06:43:29.479Z,14.57
2023-04-13T06:48:31.971Z,20.20
2023-04-13T06:53:34.566Z,28.88
2023-04-13T06:58:36.502Z,20.35
2023-04-13T07:08:40.324Z,16.75
2023-04-13T07:13:42.500Z,16.10
2023-04-13T07:18:44.406Z,13.85
2023-04-13T07:23:46.315Z,18.27
2023-04-13T07:28:48.246Z,25.88
2023-04-13T07:33:50.166Z,17.40
2023-04-13T07:43:53.663Z,15.55
2023-04-13T07:48:55.670Z,20.13
2023-04-13T07:53:57.816Z,15.20
2023-04-13T08:04:02.093Z,13.75
2023-04-13T08:09:04.229Z,11.23
2023-04-13T08:14:06.089Z,10.07
2023-04-13T08:19:07.871Z,10.38
2023-04-13T08:24:09.934Z,7.32
2023-04-13T08:29:11.879Z,10.27
2023-04-13T08:34:13.675Z,11.63
2023-04-13T08:39:15.646Z,14.27
2023-04-13T08:44:17.793Z,28.98
2023-04-13T08:49:20.398Z,14.45
2023-04-13T08:54:22.390Z,18.25
2023-04-13T08:59:25.852Z,10.35
2023-04-13T09:04:27.928Z,6.53
2023-04-13T09:14:31.662Z,4.03
2023-04-13T09:19:33.578Z,7.40
2023-04-13T09:24:41.746Z,6.78
2023-04-13T09:29:49.434Z,10.65
2023-04-13T09:35:04.542Z,9.55
2023-04-13T09:40:15.852Z,14.25
2023-04-13T09:45:17.839Z,10.75
2023-04-13T09:50:23.907Z,6.65
2023-04-13T09:55:25.882Z,11.23
2023-04-13T10:00:27.741Z,7.43
2023-04-13T10:05:29.647Z,6.85
2023-04-13T10:10:31.588Z,4.25
2023-04-13T10:16:04.187Z,6.15
2023-04-13T10:21:06.266Z,7.03
2023-04-13T10:26:08.204Z,6.95
2023-04-13T10:31:12.019Z,4.88
2023-04-13T10:36:14.326Z,4.78
2023-04-13T10:41:25.922Z,4.18
2023-04-13T10:46:27.960Z,9.10
2023-04-13T10:51:40.067Z,11.55
2023-04-13T10:56:41.971Z,5.73
2023-04-13T11:01:43.889Z,6.47
2023-04-13T11:06:45.720Z,10.85
2023-04-13T11:11:51.714Z,6.82
2023-04-13T11:16:58.434Z,7.50
2023-04-13T11:22:00.721Z,6.25
2023-04-13T11:27:02.687Z,7.22
2023-04-13T11:32:04.844Z,6.88
2023-04-13T11:37:06.820Z,4.97
2023-04-13T11:42:08.660Z,5.38
2023-04-13T11:47:10.628Z,6.78
2023-04-13T11:52:12.522Z,7.00
2023-04-13T11:57:14.451Z,7.68
2023-04-13T12:02:21.873Z,4.72
2023-04-13T12:07:25.626Z,7.32
2023-04-13T12:22:52.559Z,7.90
2023-04-13T12:28:01.669Z,9.38
2023-04-13T12:33:03.790Z,10.65
2023-04-13T12:38:05.759Z,5.80
2023-04-13T12:43:07.638Z,9.57
2023-04-13T12:48:09.638Z,4.72
2023-04-13T12:53:11.685Z,7.53
2023-04-13T12:58:13.602Z,11.70
2023-04-13T13:03:15.711Z,10.65
2023-04-13T13:08:17.897Z,6.40
2023-04-13T13:13:19.922Z,8.13
2023-04-13T13:18:22.010Z,8.68
2023-04-13T13:23:23.975Z,7.43
2023-04-13T13:28:25.880Z,9.85
2023-04-13T13:33:27.773Z,10.15
2023-04-13T13:38:29.682Z,8.98
2023-04-13T13:43:31.585Z,7.32
2023-04-13T13:48:33.743Z,13.75
2023-04-13T13:58:37.332Z,5.55
2023-04-13T14:03:39.394Z,6.30
2023-04-13T14:08:41.490Z,11.75
2023-04-13T14:13:43.926Z,4.85
2023-04-13T14:23:50.892Z,4.97
2023-04-13T14:28:52.773Z,8.07
2023-04-13T14:33:54.893Z,16.27
2023-04-13T14:38:56.856Z,7.55
2023-04-13T14:43:58.821Z,10.27
2023-04-13T14:49:00.994Z,5.15
2023-04-13T14:59:05.232Z,4.25
2023-04-13T15:04:07.483Z,7.87
2023-04-13T15:09:09.415Z,14.18
2023-04-13T15:14:11.386Z,9.73
2023-04-13T15:19:13.494Z,8.43
2023-04-13T15:24:16.804Z,9.00
2023-04-13T15:29:18.670Z,6.63
2023-04-13T15:34:20.548Z,5.33
2023-04-13T15:39:22.468Z,7.68
2023-04-13T15:44:25.004Z,10.85
2023-04-13T15:54:28.524Z,9.38
2023-04-13T15:59:30.462Z,8.33
2023-04-13T16:04:32.652Z,9.90
2023-04-13T16:09:34.729Z,6.43
2023-04-13T16:14:36.661Z,10.40
2023-04-13T16:19:38.501Z,3.72
2023-04-13T16:24:40.327Z,5.15
2023-04-13T16:29:42.102Z,5.97
2023-04-13T16:34:44.021Z,3.67
2023-04-13T16:39:45.936Z,10.38
2023-04-13T16:44:47.858Z,8.30
2023-04-13T16:49:50.084Z,10.07
2023-04-13T16:54:52.133Z,5.82
2023-04-13T16:59:54.049Z,4.60
2023-04-13T17:04:55.930Z,6.80
2023-04-13T17:09:57.948Z,6.27
2023-04-13T17:14:59.962Z,7.57
2023-04-13T17:20:01.941Z,5.50
2023-04-13T17:25:04.159Z,4.47
2023-04-13T17:30:07.068Z,2.63
2023-04-13T17:35:09.252Z,4.60
2023-04-13T17:40:11.594Z,4.82
2023-04-13T17:45:13.481Z,6.18
2023-04-13T17:50:15.397Z,7.57
2023-04-13T17:55:17.352Z,5.77
2023-04-13T18:00:20.190Z,3.17
2023-04-13T18:05:22.049Z,4.88
2023-04-13T18:10:23.890Z,8.83
2023-04-13T18:15:25.876Z,13.40
2023-04-13T18:20:27.663Z,3.30
2023-04-13T18:25:29.491Z,7.67
2023-04-13T18:30:31.494Z,5.00
2023-04-13T18:35:33.480Z,5.43
2023-04-13T18:40:35.558Z,2.87
2023-04-13T18:45:37.883Z,7.60
2023-04-13T18:50:39.912Z,7.97
2023-04-13T18:55:42.695Z,1.92
2023-04-13T19:00:45.726Z,3.22
2023-04-13T19:05:47.659Z,2.78
2023-04-13T19:10:49.554Z,3.37
2023-04-13T19:15:51.471Z,5.27
2023-04-13T19:20:53.445Z,2.63
2023-04-13T19:26:44.911Z,2.83
2023-04-13T19:31:58.920Z,3.33
2023-04-13T19:37:00.778Z,5.63
2023-04-13T19:42:02.638Z,4.30
2023-04-13T19:47:04.569Z,6.47
2023-04-13T19:52:06.482Z,4.50
2023-04-13T19:57:08.382Z,5.37
2023-04-13T20:02:10.312Z,6.40
2023-04-13T20:07:12.323Z,3.57
2023-04-13T20:12:14.167Z,2.07
2023-04-13T20:17:16.036Z,4.37
2023-04-13T20:22:17.924Z,2.00
2023-04-13T20:27:20.006Z,7.97
2023-04-13T20:32:21.899Z,2.15
2023-04-13T20:37:23.840Z,2.67
2023-04-13T20:42:25.855Z,4.20
2023-04-13T20:47:28.277Z,3.03
2023-04-13T20:52:30.241Z,2.15
2023-04-13T20:57:32.120Z,2.13
2023-04-13T21:02:34.310Z,5.87
2023-04-13T21:07:37.180Z,2.60
2023-04-13T21:17:40.786Z,1.50
2023-04-13T21:22:42.750Z,2.47
2023-04-13T21:27:44.636Z,3.83
2023-04-13T21:32:46.568Z,2.10
2023-04-13T21:37:48.476Z,5.20
2023-04-13T21:42:50.488Z,4.67
2023-04-13T21:47:52.317Z,3.43
2023-04-13T21:52:54.281Z,1.40
2023-04-13T21:57:56.244Z,4.30
2023-04-13T22:02:58.256Z,1.87
2023-04-13T22:08:00.215Z,3.00
2023-04-13T22:13:02.040Z,2.80
2023-04-13T22:18:04.171Z,2.07
2023-04-13T22:23:06.078Z,2.20
2023-04-13T22:28:08.021Z,2.60
2023-04-13T22:33:10.001Z,2.27
2023-04-13T22:38:11.881Z,4.87
2023-04-13T22:43:13.780Z,1.60
2023-04-13T22:48:15.739Z,2.53
2023-04-13T22:53:17.683Z,3.60
2023-04-13T22:58:19.599Z,3.20
2023-04-13T23:03:21.697Z,4.60
2023-04-13T23:08:23.789Z,6.03
2023-04-13T23:13:25.683Z,4.55
2023-04-13T23:18:27.605Z,8.23
2023-04-13T23:23:29.493Z,2.20
2023-04-13T23:28:31.470Z,5.93
2023-04-13T23:33:34.176Z,5.37
2023-04-13T23:43:37.784Z,3.00
2023-04-13T23:48:39.689Z,4.40
2023-04-13T23:53:41.572Z,2.83
2023-04-13T23:58:43.551Z,2.73
